createdAt,value
2023-01-25T00:02:00.552Z,72.20
2023-01-25T00:04:27.369Z,72.20
2023-01-25T00:06:54.224Z,72.20
2023-01-25T00:09:22.824Z,72.30
2023-01-25T00:11:49.633Z,72.20
2023-01-25T00:14:16.468Z,72.90
2023-01-25T00:16:43.214Z,72.10
2023-01-25T00:19:10.224Z,72.20
2023-01-25T00:21:37.133Z,72.20
2023-01-25T00:24:04.218Z,72.20
2023-01-25T00:26:31.789Z,72.20
2023-01-25T00:28:58.645Z,72.20
2023-01-25T00:31:34.690Z,72.10
2023-01-25T00:34:06.730Z,72.20
2023-01-25T00:36:41.159Z,72.20
2023-01-25T00:39:12.581Z,72.30
2023-01-25T00:41:39.948Z,72.20
2023-01-25T00:44:06.909Z,72.10
2023-01-25T00:46:33.687Z,72.30
2023-01-25T00:49:00.433Z,73.20
2023-01-25T00:51:27.211Z,72.50
2023-01-25T00:53:54.068Z,72.50
2023-01-25T00:56:20.848Z,72.50
2023-01-25T00:58:47.568Z,72.40
2023-01-25T01:01:14.520Z,72.40
2023-01-25T01:03:41.296Z,72.20
2023-01-25T01:06:09.941Z,72.40
2023-01-25T01:08:39.175Z,72.50
2023-01-25T01:11:07.515Z,72.50
2023-01-25T01:13:34.340Z,72.50
2023-01-25T01:16:02.751Z,72.50
2023-01-25T01:18:50.978Z,72.40
2023-01-25T01:21:17.724Z,72.50
2023-01-25T01:23:44.524Z,72.60
2023-01-25T01:26:15.556Z,73.10
2023-01-25T01:28:42.776Z,73.80
2023-01-25T01:31:14.313Z,72.70
2023-01-25T01:33:41.215Z,72.70
2023-01-25T01:36:08.951Z,72.80
2023-01-25T01:38:35.679Z,72.60
2023-01-25T01:41:02.394Z,72.80
2023-01-25T01:43:31.097Z,72.70
2023-01-25T01:46:00.546Z,72.70
2023-01-25T01:48:42.335Z,72.90
2023-01-25T01:51:14.406Z,72.60
2023-01-25T01:53:42.976Z,72.60
2023-01-25T01:56:11.406Z,72.40
2023-01-25T01:58:38.279Z,72.60
2023-01-25T02:01:05.291Z,72.20
2023-01-25T02:03:32.032Z,72.20
2023-01-25T02:06:04.618Z,72.40
2023-01-25T02:08:33.545Z,72.40
2023-01-25T02:11:00.833Z,72.30
2023-01-25T02:13:27.675Z,72.10
2023-01-25T02:15:56.407Z,71.90
2023-01-25T02:18:23.346Z,72.00
2023-01-25T02:20:54.408Z,72.00
2023-01-25T02:23:43.321Z,71.90
2023-01-25T02:26:10.048Z,71.70
2023-01-25T02:28:53.256Z,71.90
2023-01-25T02:31:20.127Z,72.00
2023-01-25T02:33:46.926Z,72.60
2023-01-25T02:36:43.105Z,71.40
2023-01-25T02:39:13.220Z,71.20
2023-01-25T02:41:40.927Z,71.10
2023-01-25T02:44:11.974Z,71.20
2023-01-25T02:46:39.413Z,71.20
2023-01-25T02:49:06.972Z,71.10
2023-01-25T02:51:35.113Z,71.30
2023-01-25T02:54:02.754Z,72.30
2023-01-25T02:56:29.558Z,71.10
2023-01-25T02:58:56.757Z,71.10
2023-01-25T03:01:23.551Z,71.20
2023-01-25T03:03:50.320Z,71.40
2023-01-25T03:06:17.102Z,71.40
2023-01-25T03:08:43.838Z,71.30
2023-01-25T03:11:10.617Z,71.30
2023-01-25T03:13:38.219Z,71.30
2023-01-25T03:16:10.137Z,70.90
2023-01-25T03:18:37.083Z,70.60
2023-01-25T03:21:14.532Z,70.40
2023-01-25T03:23:41.696Z,70.70
2023-01-25T03:26:16.511Z,70.80
2023-01-25T03:28:43.444Z,70.70
2023-01-25T03:31:11.429Z,71.00
2023-01-25T03:33:38.383Z,70.80
2023-01-25T03:36:05.495Z,71.50
2023-01-25T03:38:32.513Z,70.80
2023-01-25T03:40:59.337Z,71.00
2023-01-25T03:43:26.130Z,71.10
2023-01-25T03:45:57.328Z,70.90
2023-01-25T03:48:24.222Z,71.00
2023-01-25T03:50:52.147Z,71.70
2023-01-25T03:53:31.376Z,70.70
2023-01-25T03:56:02.689Z,70.70
2023-01-25T03:58:29.759Z,70.70
2023-01-25T04:00:58.240Z,71.50
2023-01-25T04:03:25.256Z,70.90
2023-01-25T04:05:52.895Z,70.90
2023-01-25T04:08:19.814Z,70.80
2023-01-25T04:10:53.725Z,71.00
2023-01-25T04:13:21.133Z,70.90
2023-01-25T04:15:48.145Z,70.90
2023-01-25T04:18:15.070Z,70.80
2023-01-25T04:20:42.443Z,70.80
2023-01-25T04:23:10.271Z,70.90
2023-01-25T04:25:37.318Z,71.00
2023-01-25T04:28:04.440Z,70.90
2023-01-25T04:30:31.264Z,71.00
2023-01-25T04:33:04.698Z,70.70
2023-01-25T04:35:31.674Z,70.80
2023-01-25T04:37:59.107Z,71.10
2023-01-25T04:40:27.926Z,71.20
2023-01-25T04:42:54.677Z,71.40
2023-01-25T04:45:21.708Z,71.60
2023-01-25T04:47:48.956Z,71.60
2023-01-25T04:50:15.861Z,71.50
2023-01-25T04:52:42.596Z,71.70
2023-01-25T04:55:09.808Z,71.60
2023-01-25T04:57:36.832Z,71.30
2023-01-25T05:00:04.215Z,71.30
2023-01-25T05:02:31.034Z,71.00
2023-01-25T05:04:57.828Z,70.80
2023-01-25T05:07:24.669Z,70.90
2023-01-25T05:09:51.374Z,71.00
2023-01-25T05:12:18.142Z,70.70
2023-01-25T05:14:44.888Z,70.70
2023-01-25T05:17:11.678Z,71.90
2023-01-25T05:19:38.402Z,70.90
2023-01-25T05:22:07.592Z,70.80
2023-01-25T05:24:35.343Z,70.60
2023-01-25T05:27:05.508Z,71.00
2023-01-25T05:29:42.882Z,70.90
2023-01-25T05:32:13.328Z,70.70
2023-01-25T05:34:40.168Z,70.70
2023-01-25T05:37:08.507Z,70.90
2023-01-25T05:39:35.305Z,70.90
2023-01-25T05:42:02.089Z,70.80
2023-01-25T05:44:28.877Z,71.00
2023-01-25T05:46:55.710Z,70.80
2023-01-25T05:49:22.452Z,70.80
2023-01-25T05:51:49.319Z,71.40
2023-01-25T05:54:16.989Z,70.50
2023-01-25T05:56:43.984Z,70.50
2023-01-25T05:59:11.149Z,70.60
2023-01-25T06:01:38.039Z,70.60
2023-01-25T06:04:04.982Z,70.80
2023-01-25T06:06:31.747Z,70.30
2023-01-25T06:08:58.591Z,70.50
2023-01-25T06:11:25.406Z,70.40
2023-01-25T06:13:52.306Z,70.30
2023-01-25T06:16:19.321Z,71.20
2023-01-25T06:18:46.233Z,70.80
2023-01-25T06:21:13.054Z,70.70
2023-01-25T06:23:39.922Z,70.20
2023-01-25T06:26:08.910Z,70.10
2023-01-25T06:28:36.644Z,70.30
2023-01-25T06:31:11.281Z,70.60
2023-01-25T06:33:38.205Z,69.90
2023-01-25T06:36:06.708Z,70.00
2023-01-25T06:38:33.528Z,70.20
2023-01-25T06:41:04.290Z,69.80
2023-01-25T06:43:31.663Z,70.20
2023-01-25T06:45:59.819Z,70.60
2023-01-25T06:48:27.088Z,70.00
2023-01-25T06:51:03.632Z,69.90
2023-01-25T06:53:31.888Z,70.20
2023-01-25T06:56:03.512Z,69.80
2023-01-25T06:58:30.458Z,70.00
2023-01-25T07:01:07.073Z,69.50
2023-01-25T07:03:34.088Z,69.60
2023-01-25T07:06:04.888Z,69.90
2023-01-25T07:08:32.383Z,70.60
2023-01-25T07:11:03.843Z,69.80
2023-01-25T07:13:31.239Z,69.70
2023-01-25T07:16:05.570Z,69.60
2023-01-25T07:18:32.685Z,69.50
2023-01-25T07:21:05.868Z,69.70
2023-01-25T07:23:33.352Z,69.60
2023-01-25T07:26:00.260Z,69.70
2023-01-25T07:28:27.200Z,69.60
2023-01-25T07:30:54.022Z,69.70
2023-01-25T07:33:20.744Z,69.20
2023-01-25T07:35:48.254Z,69.20
2023-01-25T07:38:15.027Z,69.20
2023-01-25T07:40:41.756Z,69.10
2023-01-25T07:43:08.522Z,69.20
2023-01-25T07:45:35.377Z,69.10
2023-01-25T07:48:09.468Z,69.10
2023-01-25T07:50:37.327Z,68.80
2023-01-25T07:53:04.087Z,68.80
2023-01-25T07:55:31.256Z,68.60
2023-01-25T07:57:57.991Z,68.80
2023-01-25T08:00:25.123Z,68.80
2023-01-25T08:02:52.095Z,68.50
2023-01-25T08:05:19.424Z,68.80
2023-01-25T08:07:46.735Z,69.10
2023-01-25T08:10:13.532Z,68.80
2023-01-25T08:12:40.451Z,68.60
2023-01-25T08:15:08.560Z,68.90
2023-01-25T08:17:35.523Z,69.20
2023-01-25T08:20:02.774Z,68.50
2023-01-25T08:22:29.479Z,68.30
2023-01-25T08:24:56.759Z,68.80
2023-01-25T08:27:23.760Z,68.30
2023-01-25T08:29:50.619Z,68.50
2023-01-25T08:32:17.444Z,68.60
2023-01-25T08:34:44.159Z,68.20
2023-01-25T08:37:10.908Z,68.50
2023-01-25T08:39:37.932Z,68.20
2023-01-25T08:42:04.752Z,68.30
2023-01-25T08:44:31.536Z,69.30
2023-01-25T08:46:58.348Z,69.40
2023-01-25T08:49:26.605Z,68.50
2023-01-25T08:51:53.447Z,68.50
2023-01-25T08:54:20.148Z,68.50
2023-01-25T08:56:46.929Z,68.50
2023-01-25T08:59:13.799Z,68.40
2023-01-25T09:01:40.644Z,68.20
2023-01-25T09:04:07.402Z,67.70
2023-01-25T09:06:34.321Z,68.20
2023-01-25T09:09:01.127Z,68.20
2023-01-25T09:11:27.871Z,67.90
2023-01-25T09:13:54.621Z,67.80
2023-01-25T09:16:28.461Z,67.90
2023-01-25T09:18:56.799Z,67.70
2023-01-25T09:21:23.573Z,67.80
2023-01-25T09:24:09.282Z,68.10
2023-01-25T09:26:38.118Z,67.60
2023-01-25T09:29:05.419Z,67.60
2023-01-25T09:31:32.358Z,67.90
2023-01-25T09:33:59.187Z,67.90
2023-01-25T09:36:25.936Z,67.90
2023-01-25T09:38:53.039Z,67.90
2023-01-25T09:41:46.074Z,68.00
2023-01-25T09:44:24.560Z,68.10
2023-01-25T09:47:18.411Z,68.20
2023-01-25T09:50:06.538Z,68.10
2023-01-25T09:52:54.045Z,68.00
2023-01-25T09:55:22.716Z,68.20
2023-01-25T09:57:51.105Z,68.40
2023-01-25T10:00:23.608Z,68.50
2023-01-25T10:02:53.328Z,68.60
2023-01-25T10:05:27.309Z,68.30
2023-01-25T10:07:56.893Z,68.40
2023-01-25T10:10:25.191Z,68.20
2023-01-25T10:12:51.941Z,68.10
2023-01-25T10:15:20.438Z,68.30
2023-01-25T10:17:48.733Z,68.30
2023-01-25T10:20:41.665Z,68.40
2023-01-25T10:23:14.829Z,68.20
2023-01-25T10:25:46.358Z,68.30
2023-01-25T10:28:24.681Z,68.50
2023-01-25T10:31:03.573Z,68.50
2023-01-25T10:33:30.732Z,68.40
2023-01-25T10:36:00.023Z,68.30
2023-01-25T10:38:28.837Z,68.40
2023-01-25T10:41:10.118Z,68.30
2023-01-25T10:43:36.925Z,68.20
2023-01-25T10:46:03.824Z,68.20
2023-01-25T10:48:33.193Z,68.40
2023-01-25T10:51:00.000Z,68.10
2023-01-25T10:53:44.222Z,68.00
2023-01-25T10:56:11.027Z,68.30
2023-01-25T10:58:42.407Z,68.10
2023-01-25T11:01:28.547Z,68.30
2023-01-25T11:03:55.401Z,68.40
2023-01-25T11:06:34.256Z,67.60
2023-01-25T11:09:01.937Z,67.30
2023-01-25T11:11:35.193Z,67.10
2023-01-25T11:14:02.112Z,67.70
2023-01-25T11:16:37.620Z,67.70
2023-01-25T11:19:21.681Z,67.60
2023-01-25T11:21:52.951Z,68.50
2023-01-25T11:24:19.752Z,67.70
2023-01-25T11:26:46.739Z,67.80
2023-01-25T11:29:17.173Z,67.90
2023-01-25T11:31:48.289Z,68.00
2023-01-25T11:34:19.376Z,67.50
2023-01-25T11:37:03.402Z,67.70
2023-01-25T11:39:43.797Z,67.80
2023-01-25T11:42:19.620Z,67.70
2023-01-25T11:45:17.176Z,67.60
2023-01-25T11:47:54.597Z,67.80
2023-01-25T11:50:21.359Z,67.80
2023-01-25T11:53:03.188Z,67.80
2023-01-25T11:55:33.207Z,67.80
2023-01-25T11:58:12.318Z,67.70
2023-01-25T12:00:46.808Z,67.70
2023-01-25T12:03:58.250Z,67.70
2023-01-25T12:06:48.452Z,67.70
2023-01-25T12:09:47.316Z,67.50
2023-01-25T12:12:37.017Z,67.60
2023-01-25T12:15:13.262Z,67.70
2023-01-25T12:18:14.552Z,67.60
2023-01-25T12:21:09.451Z,67.70
2023-01-25T12:24:04.195Z,67.30
2023-01-25T12:26:41.339Z,67.10
2023-01-25T12:29:29.714Z,67.10
2023-01-25T12:32:01.643Z,67.10
2023-01-25T12:34:42.207Z,67.10
2023-01-25T12:37:22.196Z,67.10
2023-01-25T12:39:52.467Z,67.00
2023-01-25T12:42:21.582Z,67.20
2023-01-25T12:44:54.916Z,67.00
2023-01-25T12:47:25.334Z,67.20
2023-01-25T12:50:00.675Z,67.10
2023-01-25T12:52:37.840Z,67.10
2023-01-25T12:55:06.860Z,67.10
2023-01-25T12:57:36.310Z,67.20
2023-01-25T13:00:06.161Z,67.00
2023-01-25T13:03:00.731Z,67.10
2023-01-25T13:05:37.586Z,67.10
2023-01-25T13:08:11.384Z,67.10
2023-01-25T13:11:18.150Z,67.00
2023-01-25T13:13:44.957Z,67.10
2023-01-25T13:16:30.031Z,67.10
2023-01-25T13:18:57.531Z,67.10
2023-01-25T13:21:45.112Z,66.90
2023-01-25T13:24:20.940Z,67.00
2023-01-25T13:27:28.396Z,66.80
2023-01-25T13:30:24.116Z,66.90
2023-01-25T13:32:50.784Z,67.10
2023-01-25T13:35:35.268Z,66.90
2023-01-25T13:38:37.423Z,66.80
2023-01-25T13:41:05.558Z,67.80
2023-01-25T13:43:32.298Z,66.90
2023-01-25T13:45:59.030Z,67.00
2023-01-25T13:48:26.207Z,67.10
2023-01-25T13:51:00.937Z,67.00
2023-01-25T13:53:35.203Z,67.00
2023-01-25T13:56:02.307Z,67.00
2023-01-25T13:58:31.291Z,66.80
2023-01-25T14:01:08.288Z,67.00
2023-01-25T14:03:37.019Z,67.10
2023-01-25T14:06:04.472Z,67.10
2023-01-25T14:08:31.273Z,67.10
2023-01-25T14:10:58.072Z,67.10
2023-01-25T14:13:25.023Z,66.80
2023-01-25T14:15:58.362Z,66.80
2023-01-25T14:18:31.992Z,67.00
2023-01-25T14:21:19.105Z,66.90
2023-01-25T14:23:45.992Z,66.70
2023-01-25T14:26:23.967Z,66.60
2023-01-25T14:29:01.575Z,66.80
2023-01-25T14:31:33.024Z,67.00
2023-01-25T14:33:59.866Z,66.90
2023-01-25T14:36:28.376Z,66.50
2023-01-25T14:38:55.620Z,66.20
2023-01-25T14:41:40.152Z,67.20
2023-01-25T14:44:14.926Z,66.60
2023-01-25T14:46:41.809Z,66.30
2023-01-25T14:49:27.496Z,66.20
2023-01-25T14:52:10.402Z,66.40
2023-01-25T14:54:44.567Z,66.60
2023-01-25T14:57:33.165Z,66.90
2023-01-25T15:00:00.075Z,66.80
2023-01-25T15:02:39.827Z,67.10
2023-01-25T15:05:15.585Z,67.30
2023-01-25T15:07:44.967Z,66.60
2023-01-25T15:10:24.892Z,66.50
2023-01-25T15:13:15.333Z,66.20
2023-01-25T15:16:02.010Z,67.00
2023-01-25T15:18:48.147Z,67.10
2023-01-25T15:21:35.207Z,67.40
2023-01-25T15:24:06.546Z,67.50
2023-01-25T15:26:34.641Z,67.50
2023-01-25T15:29:03.085Z,67.20
2023-01-25T15:31:32.096Z,67.10
2023-01-25T15:33:59.220Z,67.20
2023-01-25T15:36:26.071Z,67.60
2023-01-25T15:38:52.831Z,67.90
2023-01-25T15:41:19.831Z,67.70
2023-01-25T15:43:47.230Z,67.50
2023-01-25T15:46:19.818Z,67.60
2023-01-25T15:48:47.251Z,67.60
2023-01-25T15:51:14.038Z,68.00
2023-01-25T15:53:40.777Z,68.10
2023-01-25T15:56:15.264Z,68.40
2023-01-25T15:58:47.555Z,68.60
2023-01-25T16:01:14.531Z,68.60
2023-01-25T16:03:41.733Z,68.60
2023-01-25T16:06:40.023Z,68.40
2023-01-25T16:09:29.574Z,68.70
2023-01-25T16:11:58.084Z,69.10
2023-01-25T16:14:30.001Z,69.50
2023-01-25T16:17:04.502Z,69.50
2023-01-25T16:19:31.661Z,69.60
2023-01-25T16:21:58.505Z,69.60
2023-01-25T16:24:25.331Z,69.80
2023-01-25T16:26:53.456Z,69.80
2023-01-25T16:29:20.424Z,69.70
2023-01-25T16:31:47.402Z,69.80
2023-01-25T16:34:14.243Z,70.00
2023-01-25T16:36:41.353Z,70.00
2023-01-25T16:39:11.722Z,70.30
2023-01-25T16:41:38.677Z,70.00
2023-01-25T16:44:05.431Z,69.90
2023-01-25T16:46:32.241Z,69.90
2023-01-25T16:48:59.799Z,70.00
2023-01-25T16:51:27.772Z,70.20
2023-01-25T16:53:55.721Z,70.30
2023-01-25T16:56:24.014Z,71.20
2023-01-25T16:58:50.925Z,70.30
2023-01-25T17:01:18.598Z,70.40
2023-01-25T17:03:45.541Z,70.30
2023-01-25T17:06:20.289Z,70.70
2023-01-25T17:08:47.652Z,70.40
2023-01-25T17:11:14.593Z,70.30
2023-01-25T17:13:41.381Z,70.30
2023-01-25T17:16:08.267Z,70.40
2023-01-25T17:18:35.062Z,70.50
2023-01-25T17:21:03.485Z,70.40
2023-01-25T17:23:31.774Z,70.30
2023-01-25T17:25:58.621Z,70.40
2023-01-25T17:28:25.456Z,70.50
2023-01-25T17:30:54.420Z,70.60
2023-01-25T17:33:21.465Z,70.90
2023-01-25T17:35:48.205Z,70.70
2023-01-25T17:38:15.053Z,70.80
2023-01-25T17:40:41.821Z,71.10
2023-01-25T17:43:08.592Z,70.80
2023-01-25T17:45:39.148Z,71.00
2023-01-25T17:48:07.675Z,71.00
2023-01-25T17:50:35.065Z,71.10
2023-01-25T17:53:02.238Z,71.10
2023-01-25T17:55:29.481Z,71.20
2023-01-25T17:57:57.769Z,71.10
2023-01-25T18:00:24.740Z,71.20
2023-01-25T18:02:51.977Z,71.10
2023-01-25T18:05:18.903Z,71.20
2023-01-25T18:07:45.852Z,71.30
2023-01-25T18:10:13.629Z,71.30
2023-01-25T18:12:40.401Z,71.30
2023-01-25T18:15:07.698Z,71.20
2023-01-25T18:17:35.795Z,71.10
2023-01-25T18:20:05.403Z,71.00
2023-01-25T18:22:32.821Z,71.40
2023-01-25T18:25:00.212Z,71.20
2023-01-25T18:27:27.969Z,71.20
2023-01-25T18:30:26.144Z,71.10
2023-01-25T18:32:52.924Z,71.00
2023-01-25T18:35:19.907Z,71.20
2023-01-25T18:37:46.781Z,71.30
2023-01-25T18:40:14.274Z,71.30
2023-01-25T18:42:41.012Z,71.10
2023-01-25T18:45:09.436Z,72.10
2023-01-25T18:47:36.412Z,71.30
2023-01-25T18:50:03.231Z,71.10
2023-01-25T18:52:29.991Z,71.00
2023-01-25T18:54:56.963Z,70.80
2023-01-25T18:57:23.777Z,70.80
2023-01-25T18:59:50.635Z,70.90
2023-01-25T19:02:17.719Z,71.10
2023-01-25T19:04:45.714Z,70.80
2023-01-25T19:07:12.956Z,71.10
2023-01-25T19:09:42.268Z,71.40
2023-01-25T19:12:09.367Z,71.10
2023-01-25T19:14:36.145Z,70.70
2023-01-25T19:17:03.154Z,70.70
2023-01-25T19:19:32.368Z,70.70
2023-01-25T19:22:02.360Z,70.80
2023-01-25T19:24:29.511Z,70.90
2023-01-25T19:26:56.506Z,71.60
2023-01-25T19:29:23.300Z,71.10
2023-01-25T19:31:50.417Z,71.20
2023-01-25T19:34:17.470Z,70.90
2023-01-25T19:36:49.481Z,70.90
2023-01-25T19:39:16.637Z,70.80
2023-01-25T19:41:43.416Z,71.00
2023-01-25T19:44:11.685Z,70.90
2023-01-25T19:46:38.433Z,71.00
2023-01-25T19:49:06.268Z,70.60
2023-01-25T19:51:34.392Z,70.50
2023-01-25T19:54:05.753Z,70.70
2023-01-25T19:56:35.694Z,70.50
2023-01-25T19:59:03.654Z,70.60
2023-01-25T20:01:30.721Z,70.80
2023-01-25T20:03:58.070Z,70.70
2023-01-25T20:06:25.346Z,70.60
2023-01-25T20:08:52.130Z,70.60
2023-01-25T20:11:21.054Z,70.80
2023-01-25T20:13:48.451Z,70.70
2023-01-25T20:16:17.210Z,70.50
2023-01-25T20:18:44.946Z,70.50
2023-01-25T20:21:14.086Z,70.70
2023-01-25T20:23:42.402Z,70.50
2023-01-25T20:26:29.271Z,70.70
2023-01-25T20:28:57.039Z,70.50
2023-01-25T20:31:24.796Z,70.70
2023-01-25T20:33:53.039Z,70.50
2023-01-25T20:36:19.864Z,70.60
2023-01-25T20:38:46.862Z,70.70
2023-01-25T20:41:14.816Z,70.80
2023-01-25T20:43:48.354Z,70.30
2023-01-25T20:46:15.854Z,70.50
2023-01-25T20:48:42.802Z,70.50
2023-01-25T20:51:10.577Z,70.30
2023-01-25T20:53:37.527Z,70.70
2023-01-25T20:56:04.538Z,70.70
2023-01-25T20:58:31.451Z,70.70
2023-01-25T21:00:58.343Z,70.50
2023-01-25T21:03:25.292Z,70.50
2023-01-25T21:05:53.110Z,70.60
2023-01-25T21:08:20.036Z,70.20
2023-01-25T21:10:53.831Z,70.20
2023-01-25T21:13:20.800Z,69.90
2023-01-25T21:16:04.377Z,69.90
2023-01-25T21:18:35.775Z,70.00
2023-01-25T21:21:19.549Z,70.10
2023-01-25T21:23:47.543Z,70.50
2023-01-25T21:26:19.010Z,69.70
2023-01-25T21:28:46.050Z,70.20
2023-01-25T21:31:14.891Z,70.20
2023-01-25T21:33:41.791Z,70.10
2023-01-25T21:36:08.953Z,69.50
2023-01-25T21:38:36.095Z,69.50
2023-01-25T21:41:03.778Z,69.50
2023-01-25T21:43:50.495Z,69.60
2023-01-25T21:46:25.374Z,69.40
2023-01-25T21:49:15.088Z,69.40
2023-01-25T21:51:49.717Z,69.70
2023-01-25T21:54:18.035Z,69.90
2023-01-25T21:56:45.456Z,69.30
2023-01-25T21:59:12.180Z,69.10
2023-01-25T22:01:38.917Z,69.10
2023-01-25T22:04:06.251Z,69.70
2023-01-25T22:06:33.443Z,70.00
2023-01-25T22:09:00.280Z,69.70
2023-01-25T22:11:27.121Z,69.50
2023-01-25T22:13:54.380Z,69.40
2023-01-25T22:16:24.264Z,69.40
2023-01-25T22:18:51.061Z,69.30
2023-01-25T22:21:17.795Z,69.20
2023-01-25T22:23:44.677Z,69.20
2023-01-25T22:26:13.187Z,69.00
2023-01-25T22:28:49.470Z,69.00
2023-01-25T22:31:17.775Z,68.80
2023-01-25T22:33:44.755Z,69.00
2023-01-25T22:36:12.257Z,68.80
2023-01-25T22:38:38.995Z,68.80
2023-01-25T22:41:13.244Z,68.80
2023-01-25T22:43:40.126Z,68.80
2023-01-25T22:46:07.619Z,68.80
2023-01-25T22:48:34.675Z,68.60
2023-01-25T22:51:10.211Z,68.50
2023-01-25T22:53:36.986Z,68.60
2023-01-25T22:56:31.968Z,68.60
2023-01-25T22:58:59.156Z,68.80
2023-01-25T23:01:27.776Z,68.30
2023-01-25T23:03:54.553Z,68.30
2023-01-25T23:06:23.721Z,68.50
2023-01-25T23:08:50.590Z,68.00
2023-01-25T23:11:19.355Z,68.30
2023-01-25T23:14:04.603Z,68.40
2023-01-25T23:16:31.461Z,68.70
2023-01-25T23:18:58.205Z,68.60
2023-01-25T23:21:27.313Z,68.70
2023-01-25T23:23:54.807Z,68.70
2023-01-25T23:26:21.579Z,68.50
2023-01-25T23:28:53.169Z,68.20
2023-01-25T23:31:24.482Z,68.40
2023-01-25T23:33:55.702Z,68.30
2023-01-25T23:36:24.225Z,68.30
2023-01-25T23:38:51.021Z,68.20
2023-01-25T23:41:18.755Z,67.80
2023-01-25T23:43:45.691Z,68.10
2023-01-25T23:46:14.368Z,68.10
2023-01-25T23:48:41.933Z,67.70
2023-01-25T23:51:08.732Z,68.20
2023-01-25T23:53:35.442Z,68.00
2023-01-25T23:56:07.321Z,68.20
2023-01-25T23:58:35.248Z,67.90
